Time;durP1;ratioP1;P1;durP2;ratioP2;P2;SDS_P1;SDS_P2;PMS_P1;PMS_P2;Temp;Humidity;BMP_temperature;BMP_pressure;BME280_temperature;BME280_humidity;BME280_pressure;Samples;Min_cycle;Max_cycle;Signal;HPM_P1;HPM_P2
2022/01/13 00:00:52;;;;;;;75.53;44.38;;;20.70;97.60;;;;;;4199804;28;20093;-62
2022/01/13 00:02:57;;;;;;;59.80;43.40;;;20.40;98.10;;;;;;4201882;28;20052;-63
2022/01/13 00:05:02;;;;;;;66.43;44.13;;;20.50;98.30;;;;;;4202219;28;20147;-63
2022/01/13 00:07:06;;;;;;;68.70;45.92;;;20.70;97.80;;;;;;4202238;28;20054;-64
2022/01/13 00:09:10;;;;;;;69.93;49.67;;;20.80;97.50;;;;;;4199062;28;20040;-63
2022/01/13 00:11:15;;;;;;;78.40;52.47;;;20.90;97.40;;;;;;4200139;28;20044;-63
2022/01/13 00:13:30;;;;;;;78.60;52.67;;;20.90;97.40;;;;;;4201272;28;20502;-63
2022/01/13 00:17:58;;;;;;;79.40;50.70;;;20.80;97.60;;;;;;4198293;28;20047;-63
2022/01/13 00:22:51;;;;;;;99.93;64.32;;;21.00;97.30;;;;;;4202744;28;20056;-63
2022/01/13 00:24:59;;;;;;;97.35;61.00;;;21.10;97.10;;;;;;4205511;28;20051;-63
2022/01/13 00:27:10;;;;;;;91.40;61.28;;;21.10;97.20;;;;;;4202799;28;20076;-64
2022/01/13 00:29:20;;;;;;;99.65;66.82;;;21.10;97.10;;;;;;4196381;28;20056;-63
2022/01/13 00:31:28;;;;;;;115.82;77.20;;;21.20;97.30;;;;;;4196305;28;20131;-63
2022/01/13 00:33:33;;;;;;;108.40;68.97;;;21.20;97.30;;;;;;4197841;28;20431;-63
2022/01/13 00:35:38;;;;;;;100.20;65.65;;;21.20;97.20;;;;;;4197441;28;20052;-64
2022/01/13 00:37:42;;;;;;;101.18;62.53;;;21.20;97.20;;;;;;4197041;28;20055;-64
2022/01/13 00:39:46;;;;;;;91.68;61.00;;;21.30;97.10;;;;;;4196421;28;20147;-63
2022/01/13 00:41:51;;;;;;;90.80;61.92;;;21.30;97.20;;;;;;4197357;28;20058;-64
2022/01/13 00:43:56;;;;;;;85.00;61.35;;;21.30;97.10;;;;;;4196431;28;20098;-64
2022/01/13 00:46:01;;;;;;;92.13;61.92;;;21.20;97.40;;;;;;4196003;28;20055;-62
2022/01/13 00:48:05;;;;;;;87.03;58.92;;;21.30;97.40;;;;;;4193563;28;20060;-62
2022/01/13 00:50:12;;;;;;;83.75;55.25;;;21.40;97.40;;;;;;4195777;28;20410;-64
2022/01/13 00:52:18;;;;;;;86.03;57.25;;;21.40;97.30;;;;;;4196259;28;20124;-63
2022/01/13 00:54:23;;;;;;;83.60;54.95;;;21.50;97.20;;;;;;4196367;28;20068;-63
2022/01/13 00:56:27;;;;;;;87.30;54.60;;;21.60;97.20;;;;;;4193969;28;20578;-63
2022/01/13 00:58:33;;;;;;;81.88;54.17;;;21.70;97.20;;;;;;4196783;28;20052;-63
2022/01/13 01:00:37;;;;;;;68.93;51.42;;;21.70;97.30;;;;;;4195867;28;20113;-63
2022/01/13 01:02:42;;;;;;;72.30;50.53;;;21.80;97.30;;;;;;4196907;28;20079;-65
2022/01/13 01:04:46;;;;;;;75.63;48.50;;;21.80;97.30;;;;;;4195438;28;20094;-63
2022/01/13 01:06:50;;;;;;;63.22;42.33;;;21.80;97.30;;;;;;4196434;28;20045;-64
2022/01/13 01:08:55;;;;;;;55.17;40.38;;;21.80;97.10;;;;;;4194376;28;20498;-63
2022/01/13 01:11:01;;;;;;;53.40;38.83;;;21.90;97.00;;;;;;4197949;28;20138;-64
2022/01/13 01:13:12;;;;;;;54.10;39.60;;;21.90;96.90;;;;;;4195881;28;20042;-64
2022/01/13 01:15:16;;;;;;;53.75;38.53;;;22.00;96.80;;;;;;4196498;28;20040;-66
2022/01/13 01:17:20;;;;;;;55.58;38.88;;;22.00;96.90;;;;;;4210336;28;20387;-65
2022/01/13 01:19:28;;;;;;;53.08;38.60;;;22.00;96.90;;;;;;4193079;28;20040;-66
2022/01/13 01:21:53;;;;;;;54.33;41.47;;;22.10;97.00;;;;;;4197475;28;20474;-67
2022/01/13 01:26:09;;;;;;;64.63;43.65;;;22.20;97.10;;;;;;4190285;28;20063;-63
2022/01/13 01:28:20;;;;;;;64.93;41.80;;;22.20;97.20;;;;;;4192177;28;20075;-66
2022/01/13 01:30:39;;;;;;;;;;;22.30;97.10;;;;;;4191753;28;20426;-64
2022/01/13 01:32:44;;;;;;;57.40;39.92;;;22.30;97.10;;;;;;4191382;28;19969;-64
2022/01/13 01:34:56;;;;;;;54.15;37.00;;;22.40;97.10;;;;;;4185123;28;20075;-64
2022/01/13 01:37:00;;;;;;;54.75;34.75;;;22.40;96.90;;;;;;4189058;28;20094;-65
2022/01/13 01:39:06;;;;;;;42.60;29.83;;;22.40;97.10;;;;;;4191566;28;20093;-67
2022/01/13 01:41:10;;;;;;;46.13;28.67;;;22.50;96.90;;;;;;4191298;28;20044;-66
2022/01/13 01:43:15;;;;;;;41.03;27.35;;;22.50;96.70;;;;;;4189845;28;20056;-66
2022/01/13 01:45:19;;;;;;;35.15;25.05;;;22.60;96.60;;;;;;4188809;28;20663;-65
2022/01/13 01:47:25;;;;;;;39.33;24.38;;;22.60;96.50;;;;;;4192014;28;20044;-66
2022/01/13 01:49:37;;;;;;;39.40;22.85;;;22.70;96.30;;;;;;4191906;28;20068;-64
2022/01/13 01:51:43;;;;;;;52.40;24.35;;;22.70;96.10;;;;;;4189602;28;20044;-63
2022/01/13 01:53:48;;;;;;;43.08;23.13;;;22.70;96.00;;;;;;4191753;28;20109;-63
2022/01/13 01:55:55;;;;;;;35.08;22.08;;;22.80;95.90;;;;;;4185021;28;20480;-64
2022/01/13 01:58:00;;;;;;;35.70;20.33;;;22.80;95.80;;;;;;4186686;28;20058;-64
2022/01/13 02:00:07;;;;;;;27.45;18.20;;;22.90;95.80;;;;;;4190468;28;20380;-65
2022/01/13 02:02:15;;;;;;;25.77;17.75;;;22.90;95.70;;;;;;4184528;28;20056;-65
2022/01/13 02:04:20;;;;;;;25.50;18.55;;;23.00;95.60;;;;;;4184381;28;20068;-65
2022/01/13 02:06:25;;;;;;;22.48;15.18;;;23.00;95.60;;;;;;4190409;28;20048;-65
2022/01/13 02:08:29;;;;;;;38.10;15.68;;;23.10;95.40;;;;;;4187921;28;20408;-65
2022/01/13 02:10:33;;;;;;;23.95;14.00;;;23.10;95.40;;;;;;4189675;28;20080;-65
2022/01/13 02:12:44;;;;;;;21.65;13.85;;;23.10;95.00;;;;;;4189883;28;20632;-64
2022/01/13 02:17:21;;;;;;;25.70;12.52;;;23.20;94.60;;;;;;4189415;28;20411;-65
2022/01/13 02:19:25;;;;;;;29.52;13.68;;;23.30;94.60;;;;;;4189479;28;20040;-65
2022/01/13 02:21:30;;;;;;;19.70;13.48;;;23.40;94.50;;;;;;4189216;28;20287;-64
2022/01/13 02:23:39;;;;;;;23.20;13.05;;;23.40;94.30;;;;;;4189784;28;20252;-65
2022/01/13 02:25:43;;;;;;;18.60;12.13;;;23.40;94.10;;;;;;4188898;28;20513;-65
2022/01/13 02:27:47;;;;;;;27.83;15.68;;;23.40;93.90;;;;;;4189698;28;20092;-66
2022/01/13 02:29:51;;;;;;;26.85;15.07;;;23.50;93.80;;;;;;4195253;28;20071;-64
2022/01/13 02:31:56;;;;;;;26.17;14.65;;;23.50;93.80;;;;;;4204456;28;20048;-66
2022/01/13 02:34:00;;;;;;;22.50;13.60;;;23.60;93.90;;;;;;4194148;28;20055;-65
2022/01/13 02:36:05;;;;;;;16.08;12.55;;;23.60;93.70;;;;;;4200779;28;20657;-66
2022/01/13 02:38:10;;;;;;;21.40;15.45;;;23.70;93.60;;;;;;4190340;28;20044;-66
2022/01/13 02:40:14;;;;;;;23.48;14.43;;;23.70;93.40;;;;;;4196001;28;20044;-66
2022/01/13 02:42:19;;;;;;;24.42;14.27;;;23.70;93.40;;;;;;4190042;28;20588;-66
2022/01/13 02:44:24;;;;;;;20.45;15.00;;;23.80;93.60;;;;;;4191062;28;20079;-66
2022/01/13 02:48:41;;;;;;;26.27;16.45;;;23.90;93.40;;;;;;4182226;28;20052;-66
2022/01/13 02:50:45;;;;;;;27.58;15.23;;;24.00;93.70;;;;;;4191548;28;20044;-66
2022/01/13 02:52:51;;;;;;;19.65;13.43;;;24.00;93.70;;;;;;4191675;28;20057;-65
2022/01/13 02:54:56;;;;;;;25.00;13.32;;;24.10;93.40;;;;;;4191104;28;20440;-66
2022/01/13 02:57:00;;;;;;;19.55;13.40;;;24.10;93.30;;;;;;4201696;28;20041;-65
2022/01/13 02:59:05;;;;;;;17.27;12.80;;;24.10;93.10;;;;;;4190794;28;20582;-66
2022/01/13 03:01:09;;;;;;;20.20;13.80;;;24.20;93.10;;;;;;4194448;28;20056;-66
2022/01/13 03:03:14;;;;;;;21.25;13.57;;;24.20;93.30;;;;;;4193833;28;20769;-66
2022/01/13 03:05:20;;;;;;;20.70;12.50;;;24.30;93.10;;;;;;4193272;28;20083;-66
2022/01/13 03:07:25;;;;;;;20.23;12.02;;;24.30;92.40;;;;;;4192541;28;20081;-66
2022/01/13 03:09:29;;;;;;;20.23;12.27;;;24.40;92.50;;;;;;4196575;28;20056;-66
2022/01/13 03:11:38;;;;;;;22.75;12.00;;;24.40;92.40;;;;;;4190675;28;20402;-66
2022/01/13 03:13:42;;;;;;;23.45;12.20;;;24.40;92.20;;;;;;4193586;28;20059;-66
2022/01/13 03:15:47;;;;;;;20.73;11.60;;;24.50;92.20;;;;;;4192324;28;20133;-67
2022/01/13 03:17:51;;;;;;;18.15;11.70;;;24.50;92.20;;;;;;4194915;28;20037;-66
2022/01/13 03:19:55;;;;;;;20.17;12.02;;;24.60;92.20;;;;;;4198995;28;20075;-64
2022/01/13 03:22:00;;;;;;;26.30;11.63;;;24.60;92.20;;;;;;4199027;28;20131;-66
2022/01/13 03:24:08;;;;;;;48.20;24.35;;;24.70;91.90;;;;;;4196059;28;20044;-67
2022/01/13 03:26:13;;;;;;;27.40;17.58;;;24.80;91.90;;;;;;4189451;28;20059;-67
2022/01/13 03:28:28;;;;;;;23.33;13.30;;;24.80;91.70;;;;;;4188423;28;20056;-66
2022/01/13 03:30:33;;;;;;;17.98;11.88;;;24.90;91.90;;;;;;4193100;28;20086;-66
2022/01/13 03:32:37;;;;;;;20.33;11.48;;;24.80;91.50;;;;;;4199576;28;20051;-66
2022/01/13 03:34:42;;;;;;;18.58;11.32;;;24.90;91.50;;;;;;4200310;28;20568;-66
2022/01/13 03:36:46;;;;;;;18.42;10.48;;;25.00;91.30;;;;;;4192390;28;20051;-66
2022/01/13 03:38:51;;;;;;;15.48;10.25;;;25.00;91.20;;;;;;4199860;28;20134;-67
2022/01/13 03:40:56;;;;;;;15.80;10.95;;;25.10;90.90;;;;;;4194454;28;20135;-67
2022/01/13 03:43:01;;;;;;;17.30;10.35;;;25.10;91.20;;;;;;4196584;28;20058;-67
2022/01/13 03:45:06;;;;;;;16.00;10.50;;;25.20;91.20;;;;;;4197396;28;20082;-67
2022/01/13 03:47:10;;;;;;;16.00;9.85;;;25.20;90.80;;;;;;4193364;28;20164;-67
2022/01/13 03:49:15;;;;;;;16.75;9.63;;;25.30;90.80;;;;;;4200288;28;20045;-67
2022/01/13 03:51:19;;;;;;;16.42;10.52;;;25.30;90.60;;;;;;4196601;28;20050;-67
2022/01/13 03:53:29;;;;;;;17.27;10.88;;;25.30;90.50;;;;;;4190176;28;20395;-67
2022/01/13 03:55:40;;;;;;;21.15;11.00;;;25.40;90.50;;;;;;4189338;28;20460;-67
2022/01/13 03:57:59;;;;;;;16.58;9.50;;;25.40;90.80;;;;;;4189446;28;20047;-67
2022/01/13 04:00:20;;;;;;;14.20;9.27;;;25.50;90.40;;;;;;4191160;28;20074;-67
2022/01/13 04:02:24;;;;;;;17.05;10.43;;;25.60;90.30;;;;;;4189939;28;20063;-68
2022/01/13 04:04:31;;;;;;;15.57;9.45;;;25.70;89.50;;;;;;4190237;28;20052;-67
2022/01/13 04:06:38;;;;;;;15.25;9.45;;;25.80;89.20;;;;;;4186340;28;20124;-67
2022/01/13 04:08:46;;;;;;;12.10;8.73;;;25.80;88.80;;;;;;4192205;28;20045;-67
2022/01/13 04:11:03;;;;;;;18.58;13.40;;;25.80;89.00;;;;;;4201844;28;20037;-67
2022/01/13 04:13:21;;;;;;;17.60;13.57;;;25.80;89.20;;;;;;4200780;28;20044;-67
2022/01/13 04:15:29;;;;;;;18.10;13.52;;;25.80;89.90;;;;;;4200267;28;20402;-66
2022/01/13 04:17:33;;;;;;;11.90;8.73;;;25.90;89.10;;;;;;4201436;28;20046;-67
2022/01/13 04:19:38;;;;;;;13.80;9.02;;;26.00;88.80;;;;;;4202423;28;20044;-68
2022/01/13 04:21:42;;;;;;;11.32;8.27;;;26.00;88.20;;;;;;4194723;28;20044;-68
2022/01/13 04:23:47;;;;;;;9.63;7.68;;;26.10;87.70;;;;;;4146198;28;20520;-67
2022/01/13 04:25:51;;;;;;;14.30;8.05;;;26.10;87.40;;;;;;4130985;28;20057;-67
2022/01/13 04:28:01;;;;;;;12.95;7.70;;;26.10;87.50;;;;;;4148262;28;20476;-67
2022/01/13 04:32:20;;;;;;;15.15;7.95;;;26.20;87.40;;;;;;4146496;28;20286;-67
2022/01/13 04:34:26;;;;;;;11.38;8.10;;;26.20;87.10;;;;;;4142133;28;20045;-67
2022/01/13 04:36:31;;;;;;;14.15;7.80;;;26.30;86.80;;;;;;4141405;28;20049;-67
2022/01/13 04:38:35;;;;;;;13.30;8.02;;;26.30;87.30;;;;;;4141535;28;20128;-68
2022/01/13 04:40:44;;;;;;;10.15;7.32;;;26.40;86.90;;;;;;4126503;28;20066;-66
2022/01/13 04:42:53;;;;;;;13.60;7.30;;;26.40;86.10;;;;;;4141072;28;20124;-68
2022/01/13 04:44:58;;;;;;;12.23;7.45;;;26.40;85.90;;;;;;4142072;28;20118;-67
2022/01/13 04:47:07;;;;;;;16.25;11.27;;;26.50;85.70;;;;;;4140339;28;20065;-67
2022/01/13 04:49:11;;;;;;;16.50;10.75;;;26.50;86.10;;;;;;4142258;28;20109;-67
2022/01/13 04:51:16;;;;;;;14.73;8.70;;;26.60;86.20;;;;;;4142394;28;20046;-66
2022/01/13 04:53:21;;;;;;;13.15;7.88;;;26.60;86.20;;;;;;4140495;28;20050;-67
2022/01/13 04:55:29;;;;;;;13.82;8.43;;;26.70;85.90;;;;;;4177123;28;20055;-67
2022/01/13 04:57:35;;;;;;;12.65;6.85;;;26.80;85.00;;;;;;4193973;28;20407;-67
2022/01/13 04:59:40;;;;;;;11.88;7.28;;;26.90;84.00;;;;;;4191947;28;20059;-67
2022/01/13 05:01:44;;;;;;;10.95;7.03;;;27.00;84.00;;;;;;4196786;28;20498;-67
2022/01/13 05:03:51;;;;;;;14.55;7.75;;;27.00;83.40;;;;;;4196322;28;20050;-68
2022/01/13 05:05:55;;;;;;;14.38;7.85;;;27.00;82.90;;;;;;4205695;28;20148;-68
2022/01/13 05:08:00;;;;;;;11.15;7.28;;;27.00;83.30;;;;;;4196576;28;20143;-68
2022/01/13 05:10:06;;;;;;;9.63;6.72;;;27.00;82.10;;;;;;4195214;28;20048;-67
2022/01/13 05:12:13;;;;;;;11.95;6.70;;;27.00;82.90;;;;;;4193710;28;20361;-67
2022/01/13 05:14:17;;;;;;;11.15;6.63;;;27.00;82.70;;;;;;4195684;28;20098;-67
2022/01/13 05:16:28;;;;;;;11.85;7.38;;;27.00;83.20;;;;;;4196109;28;20486;-67
2022/01/13 05:18:49;;;;;;;16.25;6.95;;;27.10;84.30;;;;;;4197669;28;20079;-68
2022/01/13 05:21:06;;;;;;;13.88;6.97;;;27.20;82.30;;;;;;4208169;28;20044;-66
2022/01/13 05:23:11;;;;;;;14.32;6.85;;;27.20;82.00;;;;;;4200805;28;20074;-67
2022/01/13 05:25:17;;;;;;;12.25;6.35;;;27.30;82.30;;;;;;4207828;28;20055;-65
2022/01/13 05:27:24;;;;;;;12.25;6.85;;;27.30;82.50;;;;;;4198525;28;20064;-66
2022/01/13 05:29:28;;;;;;;17.60;6.47;;;27.40;81.10;;;;;;4205302;28;20056;-67
2022/01/13 05:31:32;;;;;;;14.95;6.50;;;27.40;81.30;;;;;;4200933;28;20453;-65
2022/01/13 05:33:38;;;;;;;9.07;6.50;;;27.50;81.50;;;;;;4203919;28;20550;-65
2022/01/13 05:35:42;;;;;;;11.30;6.32;;;27.60;80.60;;;;;;4201983;28;20334;-65
2022/01/13 05:37:46;;;;;;;12.38;7.47;;;27.60;79.40;;;;;;4204413;28;20047;-66
2022/01/13 05:39:55;;;;;;;13.23;9.10;;;27.60;78.80;;;;;;4204319;28;20044;-66
2022/01/13 05:41:59;;;;;;;9.45;7.25;;;27.60;78.60;;;;;;4204205;28;20054;-65
2022/01/13 05:44:04;;;;;;;18.95;7.22;;;27.60;79.20;;;;;;4201872;28;20398;-65
2022/01/13 05:46:08;;;;;;;14.25;7.38;;;27.70;79.40;;;;;;4203979;28;20458;-65
2022/01/13 05:48:12;;;;;;;11.07;7.10;;;27.80;78.60;;;;;;4201353;28;20082;-65
2022/01/13 05:50:18;;;;;;;12.38;7.25;;;27.80;78.60;;;;;;4204570;28;20127;-66
2022/01/13 05:52:22;;;;;;;12.60;7.10;;;27.80;79.30;;;;;;4201797;28;20054;-67
2022/01/13 05:54:27;;;;;;;12.02;7.30;;;28.00;78.70;;;;;;4204342;28;20441;-66
2022/01/13 05:56:31;;;;;;;13.93;7.50;;;28.00;78.80;;;;;;4203877;28;20048;-68
2022/01/13 05:58:36;;;;;;;14.63;8.05;;;28.00;78.00;;;;;;4204559;28;20044;-66
2022/01/13 06:00:40;;;;;;;13.40;8.05;;;28.00;78.10;;;;;;4204229;28;20097;-67
2022/01/13 06:02:46;;;;;;;13.63;8.05;;;28.00;77.90;;;;;;4201242;28;20040;-67
2022/01/13 06:04:50;;;;;;;13.10;7.65;;;27.90;78.00;;;;;;4204121;28;20090;-67
2022/01/13 06:06:54;;;;;;;11.93;7.22;;;28.10;77.90;;;;;;4204043;28;20083;-67
2022/01/13 06:09:00;;;;;;;11.32;6.97;;;28.10;77.40;;;;;;4203900;28;20414;-68
2022/01/13 06:11:04;;;;;;;11.05;7.30;;;28.20;76.20;;;;;;4202621;28;20059;-66
2022/01/13 06:13:09;;;;;;;11.60;7.28;;;28.10;76.30;;;;;;4203255;28;20040;-66
2022/01/13 06:15:14;;;;;;;12.90;8.02;;;28.20;76.30;;;;;;4203620;28;20517;-66
2022/01/13 06:17:19;;;;;;;13.27;7.10;;;28.10;76.40;;;;;;4203958;28;20048;-66
2022/01/13 06:19:23;;;;;;;14.30;7.80;;;28.10;76.30;;;;;;4200872;28;20074;-66
2022/01/13 06:21:27;;;;;;;13.13;7.43;;;28.10;76.30;;;;;;4203770;28;20575;-65
2022/01/13 06:23:32;;;;;;;15.63;7.68;;;28.20;76.10;;;;;;4200083;28;20044;-62
2022/01/13 06:25:36;;;;;;;13.15;7.38;;;28.20;75.70;;;;;;4205298;28;20048;-66
2022/01/13 06:27:41;;;;;;;11.18;7.50;;;28.20;76.00;;;;;;4197849;28;20052;-65
2022/01/13 06:30:06;;;;;;;10.75;6.90;;;28.20;75.80;;;;;;4200689;28;20047;-65
2022/01/13 06:32:11;;;;;;;10.98;7.05;;;28.30;75.60;;;;;;4198294;28;20094;-65
2022/01/13 06:34:15;;;;;;;9.55;6.70;;;28.40;76.70;;;;;;4195287;28;20048;-66
2022/01/13 06:36:20;;;;;;;10.73;7.10;;;28.50;74.80;;;;;;4195440;28;20044;-65
2022/01/13 06:38:24;;;;;;;10.38;6.60;;;28.50;75.20;;;;;;4194662;28;20040;-65
2022/01/13 06:40:29;;;;;;;9.73;6.43;;;28.50;75.00;;;;;;4193293;28;20049;-65
2022/01/13 06:42:33;;;;;;;13.20;6.57;;;28.60;75.00;;;;;;4192361;28;20540;-64
2022/01/13 06:44:38;;;;;;;12.95;7.43;;;28.60;74.90;;;;;;4199471;28;20040;-65
2022/01/13 06:46:43;;;;;;;10.70;6.40;;;28.60;74.20;;;;;;4194606;28;20143;-67
2022/01/13 06:48:48;;;;;;;10.18;7.00;;;28.60;75.20;;;;;;4192103;28;20072;-66
2022/01/13 06:50:58;;;;;;;14.63;6.80;;;28.70;74.90;;;;;;4190980;28;20438;-65
2022/01/13 06:53:03;;;;;;;11.70;6.90;;;28.80;74.00;;;;;;4201573;28;20063;-65
2022/01/13 06:55:07;;;;;;;14.50;7.55;;;28.90;72.60;;;;;;4194305;28;20495;-67
2022/01/13 06:57:12;;;;;;;9.88;6.70;;;28.80;72.40;;;;;;4198240;28;20389;-66
2022/01/13 06:59:17;;;;;;;10.70;6.70;;;28.80;72.40;;;;;;4202233;28;20052;-67
2022/01/13 07:01:22;;;;;;;8.68;6.70;;;28.70;73.10;;;;;;4192274;28;20040;-66
2022/01/13 07:03:27;;;;;;;10.77;6.55;;;28.70;73.40;;;;;;4191885;28;20045;-66
2022/01/13 07:05:31;;;;;;;10.73;6.60;;;28.80;73.30;;;;;;4190657;28;20553;-65
2022/01/13 07:07:36;;;;;;;11.07;6.80;;;28.80;73.30;;;;;;4192168;28;20040;-65
2022/01/13 07:09:42;;;;;;;12.75;8.57;;;28.80;72.90;;;;;;4191168;28;20098;-65
2022/01/13 07:11:47;;;;;;;15.90;9.13;;;28.70;71.90;;;;;;4185460;28;20040;-65
2022/01/13 07:13:51;;;;;;;13.68;9.23;;;28.60;72.10;;;;;;4185953;28;20039;-65
2022/01/13 07:15:58;;;;;;;18.13;9.50;;;28.50;72.00;;;;;;4192900;28;20085;-65
2022/01/13 07:18:03;;;;;;;12.95;9.07;;;28.50;72.00;;;;;;4187041;28;20037;-66
2022/01/13 07:20:08;;;;;;;10.82;8.52;;;28.50;72.30;;;;;;4187747;28;20375;-66
2022/01/13 07:22:15;;;;;;;12.18;8.63;;;28.70;70.90;;;;;;4196787;28;20048;-66
2022/01/13 07:24:20;;;;;;;10.05;7.32;;;28.70;71.20;;;;;;4194912;28;20135;-66
2022/01/13 07:26:24;;;;;;;10.50;6.97;;;28.70;70.60;;;;;;4197175;28;20517;-66
2022/01/13 07:28:29;;;;;;;13.45;7.53;;;28.60;71.50;;;;;;4195818;28;20048;-66
2022/01/13 07:30:34;;;;;;;9.80;6.38;;;28.60;72.00;;;;;;4204786;28;20068;-66
2022/01/13 07:32:39;;;;;;;11.57;7.00;;;28.70;72.30;;;;;;4190867;28;20052;-66
2022/01/13 07:34:43;;;;;;;9.30;6.55;;;28.70;72.90;;;;;;4186621;28;20055;-65
2022/01/13 07:36:50;;;;;;;9.38;6.53;;;28.80;71.70;;;;;;4187945;28;20060;-66
2022/01/13 07:38:54;;;;;;;8.68;5.70;;;28.90;71.40;;;;;;4187855;28;20079;-66
2022/01/13 07:40:59;;;;;;;7.68;6.53;;;28.90;70.80;;;;;;4185599;28;20524;-66
2022/01/13 07:43:03;;;;;;;12.15;7.13;;;28.90;70.40;;;;;;4188345;28;20506;-66
2022/01/13 07:45:09;;;;;;;11.02;8.82;;;28.90;70.70;;;;;;4186324;28;20056;-66
2022/01/13 07:47:13;;;;;;;14.63;11.18;;;28.80;71.00;;;;;;4185425;28;20099;-66
2022/01/13 07:49:18;;;;;;;14.10;10.35;;;28.80;71.20;;;;;;4188291;28;20076;-66
2022/01/13 07:51:22;;;;;;;13.40;8.48;;;28.80;69.80;;;;;;4187815;28;20048;-66
2022/01/13 07:53:26;;;;;;;11.00;6.35;;;28.90;70.50;;;;;;4188401;28;20078;-66
2022/01/13 07:55:31;;;;;;;11.43;7.40;;;28.90;70.40;;;;;;4188622;28;20040;-66
2022/01/13 07:57:35;;;;;;;8.98;7.13;;;29.00;69.00;;;;;;4185546;28;20063;-66
2022/01/13 07:59:39;;;;;;;11.80;7.32;;;28.90;69.70;;;;;;4187724;28;20036;-66
2022/01/13 08:01:44;;;;;;;9.90;6.40;;;28.90;69.90;;;;;;4183656;28;20089;-66
2022/01/13 08:03:49;;;;;;;9.43;6.45;;;28.90;70.10;;;;;;4184884;28;20106;-67
2022/01/13 08:05:53;;;;;;;8.25;5.93;;;28.90;69.90;;;;;;4187807;28;20529;-66
2022/01/13 08:07:57;;;;;;;7.78;5.72;;;29.00;69.90;;;;;;4187757;28;20048;-66
2022/01/13 08:10:02;;;;;;;9.15;6.40;;;29.00;70.10;;;;;;4184396;28;20050;-65
2022/01/13 08:12:07;;;;;;;11.48;5.80;;;28.90;70.30;;;;;;4188038;28;20071;-65
2022/01/13 08:14:11;;;;;;;7.80;5.53;;;28.90;70.30;;;;;;4187663;28;20040;-66
2022/01/13 08:16:17;;;;;;;9.60;5.88;;;29.00;70.90;;;;;;4187648;28;20424;-66
2022/01/13 08:20:39;;;;;;;10.30;5.85;;;28.90;71.10;;;;;;4187723;28;20037;-66
2022/01/13 08:22:43;;;;;;;11.88;6.20;;;29.00;71.00;;;;;;4185646;28;20576;-66
2022/01/13 08:24:47;;;;;;;14.00;5.93;;;29.10;69.80;;;;;;4187610;28;20040;-66
2022/01/13 08:26:52;;;;;;;16.13;5.53;;;29.10;68.70;;;;;;4187875;28;20608;-66
2022/01/13 08:28:56;;;;;;;9.85;5.85;;;29.10;69.00;;;;;;4187944;28;20441;-66
2022/01/13 08:31:03;;;;;;;9.15;5.97;;;29.00;69.40;;;;;;4184823;28;20125;-66
2022/01/13 08:33:08;;;;;;;10.18;5.88;;;29.00;70.00;;;;;;4187212;28;20135;-65
2022/01/13 08:35:12;;;;;;;12.88;6.22;;;29.00;70.40;;;;;;4188246;28;20326;-64
2022/01/13 08:37:17;;;;;;;8.27;5.57;;;29.00;70.40;;;;;;4190679;28;20608;-65
2022/01/13 08:39:21;;;;;;;8.57;5.68;;;29.00;69.60;;;;;;4190432;28;20063;-66
2022/01/13 08:41:26;;;;;;;8.73;5.60;;;29.00;69.90;;;;;;4188579;28;20056;-65
2022/01/13 08:43:30;;;;;;;9.50;5.88;;;29.00;70.40;;;;;;4190860;28;20113;-65
2022/01/13 08:45:35;;;;;;;9.98;5.88;;;29.00;70.30;;;;;;4190784;28;20147;-65
2022/01/13 08:47:39;;;;;;;8.30;5.55;;;29.00;70.40;;;;;;4190548;28;20109;-65
2022/01/13 08:49:44;;;;;;;7.13;5.32;;;29.00;70.20;;;;;;4187876;28;20048;-65
2022/01/13 08:51:51;;;;;;;8.35;5.60;;;29.00;70.30;;;;;;4190794;28;20127;-65
2022/01/13 08:53:56;;;;;;;11.48;5.82;;;29.00;70.70;;;;;;4190970;28;20064;-65
2022/01/13 08:56:00;;;;;;;11.40;5.57;;;29.00;70.70;;;;;;4190434;28;20044;-66
2022/01/13 08:58:05;;;;;;;11.23;5.90;;;29.00;70.70;;;;;;4188178;28;20360;-65
2022/01/13 09:00:10;;;;;;;11.43;5.40;;;29.00;70.80;;;;;;4192726;28;20041;-63
2022/01/13 09:02:14;;;;;;;12.32;6.18;;;28.90;70.80;;;;;;4194647;28;20395;-65
2022/01/13 09:04:20;;;;;;;15.20;5.43;;;29.00;71.10;;;;;;4194685;28;20048;-65
2022/01/13 09:06:24;;;;;;;9.00;5.90;;;29.00;70.60;;;;;;4194716;28;20086;-65
2022/01/13 09:08:28;;;;;;;10.48;5.15;;;28.90;70.50;;;;;;4202792;28;20457;-64
2022/01/13 09:10:32;;;;;;;12.07;5.47;;;28.90;70.30;;;;;;4202798;28;20502;-66
2022/01/13 09:12:36;;;;;;;9.32;6.53;;;28.90;70.40;;;;;;4199617;28;20055;-66
2022/01/13 09:14:42;;;;;;;11.90;7.18;;;28.90;70.20;;;;;;4200448;28;20072;-67
2022/01/13 09:16:53;;;;;;;;;;;28.90;70.30;;;;;;4191713;28;20132;-65
2022/01/13 09:21:02;;;;;;;12.70;5.80;;;28.90;69.90;;;;;;4191909;28;20037;-64
2022/01/13 09:23:07;;;;;;;8.95;5.68;;;28.90;70.10;;;;;;4192884;28;20044;-65
2022/01/13 09:25:12;;;;;;;12.63;6.05;;;28.80;69.90;;;;;;4192658;28;20289;-65
2022/01/13 09:27:16;;;;;;;8.85;6.22;;;28.80;69.80;;;;;;4192712;28;20076;-65
2022/01/13 09:29:21;;;;;;;8.32;5.90;;;28.80;70.10;;;;;;4193138;28;20052;-65
2022/01/13 09:31:26;;;;;;;19.27;6.35;;;28.80;70.30;;;;;;4192344;28;20519;-65
2022/01/13 09:33:31;;;;;;;12.15;6.40;;;28.80;70.00;;;;;;4192220;28;20056;-65
2022/01/13 09:35:35;;;;;;;8.70;5.90;;;28.70;69.70;;;;;;4194784;28;20123;-64
2022/01/13 09:37:40;;;;;;;117.13;15.13;;;28.70;69.80;;;;;;4198115;28;20059;-64
2022/01/13 09:39:44;;;;;;;254.57;22.67;;;28.70;70.60;;;;;;4197960;28;20221;-65
2022/01/13 09:41:49;;;;;;;209.50;19.70;;;28.70;70.90;;;;;;4200046;28;20048;-65
2022/01/13 09:43:53;;;;;;;97.03;12.77;;;28.70;70.60;;;;;;4203559;28;20155;-65
2022/01/13 09:45:58;;;;;;;64.55;10.68;;;28.70;70.90;;;;;;4211512;28;20048;-65
2022/01/13 09:48:03;;;;;;;30.02;8.05;;;28.70;71.10;;;;;;4212415;28;20051;-64
2022/01/13 09:50:10;;;;;;;20.08;6.78;;;28.70;70.80;;;;;;4204525;28;20048;-64
2022/01/13 09:52:14;;;;;;;18.67;6.50;;;28.70;70.60;;;;;;4204460;28;20068;-64
2022/01/13 09:54:25;;;;;;;13.52;6.88;;;28.60;70.70;;;;;;4202278;28;20040;-63
2022/01/13 09:56:29;;;;;;;18.75;7.70;;;28.60;70.50;;;;;;4203150;28;20043;-64
2022/01/13 09:58:33;;;;;;;17.38;9.70;;;28.60;70.80;;;;;;4197166;28;20098;-63
2022/01/13 10:00:42;;;;;;;18.30;9.30;;;28.60;70.80;;;;;;4196773;28;20047;-65
2022/01/13 10:02:47;;;;;;;13.15;8.82;;;28.60;70.90;;;;;;4191122;28;20079;-66
2022/01/13 10:04:56;;;;;;;14.02;9.00;;;28.60;70.90;;;;;;4196075;28;20380;-65
2022/01/13 10:07:01;;;;;;;14.27;8.63;;;28.50;71.80;;;;;;4194521;28;20195;-65
2022/01/13 10:09:05;;;;;;;19.88;9.18;;;28.40;72.00;;;;;;4195882;28;20059;-65
2022/01/13 10:11:26;;;;;;;12.77;8.60;;;28.40;71.60;;;;;;4195772;28;20045;-65
2022/01/13 10:13:50;;;;;;;16.65;8.48;;;28.40;71.50;;;;;;4195109;28;20052;-64
2022/01/13 10:18:10;;;;;;;15.65;7.38;;;28.30;71.40;;;;;;4195914;28;20040;-64
2022/01/13 10:20:17;;;;;;;11.85;7.53;;;28.30;72.00;;;;;;4193174;28;20059;-65
2022/01/13 10:22:25;;;;;;;15.85;7.60;;;28.30;72.10;;;;;;4195990;28;20052;-62
2022/01/13 10:24:30;;;;;;;16.50;8.70;;;28.30;72.20;;;;;;4194537;28;20041;-64
2022/01/13 10:26:35;;;;;;;24.05;8.85;;;28.30;72.50;;;;;;4193476;28;20067;-64
2022/01/13 10:28:39;;;;;;;20.00;8.43;;;28.30;72.70;;;;;;4198630;28;20041;-64
2022/01/13 10:30:45;;;;;;;24.02;9.10;;;28.20;73.50;;;;;;4195615;28;20139;-64
2022/01/13 10:32:49;;;;;;;20.13;9.15;;;28.20;73.30;;;;;;4202159;28;20052;-65
2022/01/13 10:35:03;;;;;;;19.77;8.63;;;28.10;73.40;;;;;;4195377;28;20061;-65
2022/01/13 10:37:16;;;;;;;16.17;8.75;;;28.10;73.30;;;;;;4192939;28;20055;-66
2022/01/13 10:39:20;;;;;;;11.23;8.48;;;28.10;73.40;;;;;;4192810;28;20059;-65
2022/01/13 10:41:36;;;;;;;15.20;9.07;;;28.10;73.30;;;;;;4190255;28;20048;-65
2022/01/13 10:44:10;;;;;;;12.10;9.38;;;28.10;73.60;;;;;;4191836;28;20807;-64
2022/01/13 10:46:15;;;;;;;16.65;10.65;;;28.00;73.80;;;;;;4193063;28;20098;-64
2022/01/13 10:48:22;;;;;;;28.35;18.10;;;28.00;73.70;;;;;;4192608;28;20056;-65
2022/01/13 10:50:30;;;;;;;22.15;13.90;;;28.00;73.80;;;;;;4191061;28;20132;-66
2022/01/13 10:52:35;;;;;;;19.95;14.18;;;28.00;74.00;;;;;;4192666;28;20598;-66
2022/01/13 10:54:39;;;;;;;23.58;16.38;;;27.90;73.90;;;;;;4193696;28;20495;-66
2022/01/13 10:56:44;;;;;;;22.38;16.98;;;27.90;74.20;;;;;;4193512;28;20348;-64
2022/01/13 10:58:50;;;;;;;37.05;23.85;;;27.90;74.40;;;;;;4192143;28;20595;-64
2022/01/13 11:00:57;;;;;;;41.20;27.40;;;27.80;74.60;;;;;;4193237;28;20059;-65
2022/01/13 11:03:09;;;;;;;51.55;28.85;;;27.80;74.80;;;;;;4193070;28;20056;-66
2022/01/13 11:05:14;;;;;;;66.93;32.17;;;27.80;75.10;;;;;;4191672;28;20052;-66